createdAt,value
2018-05-24T00:00:02.730Z,23.5
2018-05-24T00:04:59.860Z,23.6
2018-05-24T00:09:56.667Z,23.6
2018-05-24T00:14:53.665Z,23.7
2018-05-24T00:19:51.025Z,23.6
2018-05-24T00:24:48.110Z,23.5
2018-05-24T00:29:45.118Z,23.5
2018-05-24T00:34:42.090Z,23.5
2018-05-24T00:39:39.283Z,23.5
2018-05-24T00:44:36.347Z,23.6
2018-05-24T00:49:34.025Z,23.5
2018-05-24T00:54:30.844Z,23.6
2018-05-24T00:59:27.876Z,23.4
2018-05-24T01:04:24.925Z,23.4
2018-05-24T01:09:22.022Z,23.4
2018-05-24T01:14:18.642Z,23.4
2018-05-24T01:19:15.343Z,23.5
2018-05-24T01:24:12.376Z,23.3
2018-05-24T01:29:09.490Z,23.3
2018-05-24T01:34:06.596Z,23.3
2018-05-24T01:39:03.754Z,23.3
2018-05-24T01:44:01.192Z,23.3
2018-05-24T01:48:58.443Z,23.4
2018-05-24T01:53:55.673Z,23.3
2018-05-24T01:58:52.495Z,23.4
2018-05-24T02:03:48.827Z,23.2
2018-05-24T02:08:45.591Z,23.1
2018-05-24T02:13:42.613Z,23.2
2018-05-24T02:18:39.637Z,23.2
2018-05-24T02:23:36.924Z,23.1
2018-05-24T02:28:33.651Z,23
2018-05-24T02:33:30.714Z,23
2018-05-24T02:38:27.883Z,22.9
2018-05-24T02:43:24.962Z,22.9
2018-05-24T02:48:22.173Z,23
2018-05-24T02:53:19.315Z,22.9
2018-05-24T02:58:16.469Z,22.8
2018-05-24T03:03:13.384Z,23
2018-05-24T03:08:10.672Z,22.8
2018-05-24T03:13:07.745Z,22.8
2018-05-24T03:18:04.808Z,22.8
2018-05-24T03:23:01.921Z,22.9
2018-05-24T03:27:58.997Z,22.9
2018-05-24T03:32:56.058Z,22.8
2018-05-24T03:37:53.165Z,22.7
2018-05-24T03:42:50.003Z,22.8
2018-05-24T03:47:46.811Z,22.8
2018-05-24T03:52:43.109Z,22.6
2018-05-24T03:57:40.316Z,22.8
2018-05-24T04:02:37.442Z,22.7
2018-05-24T04:07:34.529Z,22.8
2018-05-24T04:12:31.521Z,22.8
2018-05-24T04:17:28.469Z,22.8
2018-05-24T04:22:25.528Z,22.9
2018-05-24T04:27:22.383Z,22.8
2018-05-24T04:32:19.264Z,22.6
2018-05-24T04:37:16.390Z,22.6
2018-05-24T04:42:13.166Z,22.6
2018-05-24T04:47:10.258Z,22.6
2018-05-24T04:52:07.675Z,22.8
2018-05-24T04:57:04.905Z,22.8
2018-05-24T05:02:02.003Z,22.8
2018-05-24T05:06:59.105Z,22.8
2018-05-24T05:11:56.250Z,22.8
2018-05-24T05:16:53.281Z,22.8
2018-05-24T05:21:50.323Z,22.8
2018-05-24T05:26:47.669Z,22.9
2018-05-24T05:31:44.369Z,22.9
2018-05-24T05:36:41.564Z,22.9
2018-05-24T05:41:38.750Z,23
2018-05-24T05:46:35.973Z,22.8
2018-05-24T05:51:33.046Z,23
2018-05-24T05:56:29.940Z,22.9
2018-05-24T06:01:26.840Z,22.9
2018-05-24T06:06:23.970Z,22.7
2018-05-24T06:11:21.072Z,22.8
2018-05-24T06:16:18.079Z,22.8
2018-05-24T06:21:15.383Z,22.6
2018-05-24T06:26:12.543Z,22.6
2018-05-24T06:31:09.550Z,22.6
2018-05-24T06:36:06.635Z,22.6
2018-05-24T06:41:03.882Z,22.5
2018-05-24T06:46:01.422Z,22.6
2018-05-24T06:50:58.612Z,22.5
2018-05-24T06:55:55.817Z,22.5
2018-05-24T07:00:53.204Z,22.5
2018-05-24T07:05:50.258Z,22.3
2018-05-24T07:10:47.494Z,22.4
2018-05-24T07:15:44.754Z,22.3
2018-05-24T07:20:41.882Z,22.3
2018-05-24T07:25:38.559Z,22.2
2018-05-24T07:30:35.809Z,22.3
2018-05-24T07:35:32.521Z,22.1
2018-05-24T07:40:29.734Z,22.2
2018-05-24T07:45:26.864Z,22.2
2018-05-24T07:50:24.011Z,22.1
2018-05-24T07:55:20.960Z,22.2
2018-05-24T08:00:17.859Z,22.1
2018-05-24T08:05:14.503Z,22.1
2018-05-24T08:10:11.396Z,22
2018-05-24T08:15:08.032Z,22.1
2018-05-24T08:20:05.091Z,22
2018-05-24T08:25:02.280Z,22.1
2018-05-24T08:29:59.204Z,22
2018-05-24T08:34:56.287Z,22
2018-05-24T08:39:53.368Z,21.9
2018-05-24T08:44:50.380Z,21.9
2018-05-24T08:49:47.542Z,22
2018-05-24T08:54:44.615Z,22
2018-05-24T08:59:41.122Z,21.8
2018-05-24T09:04:38.409Z,21.9
2018-05-24T09:09:35.755Z,21.8
2018-05-24T09:14:32.800Z,21.9
2018-05-24T09:19:31.020Z,21.8
2018-05-24T09:24:33.130Z,21.9
2018-05-24T09:29:29.964Z,21.9
2018-05-24T09:34:26.988Z,21.8
2018-05-24T09:39:24.146Z,21.8
2018-05-24T09:44:21.422Z,21.9
2018-05-24T09:49:18.436Z,21.8
2018-05-24T09:54:15.332Z,21.8
2018-05-24T09:59:12.561Z,21.9
2018-05-24T10:04:09.756Z,21.9
2018-05-24T10:09:08.096Z,21.9
2018-05-24T10:14:10.964Z,21.9
2018-05-24T10:19:10.747Z,21.8
2018-05-24T10:24:07.659Z,21.8
2018-05-24T10:29:04.731Z,21.8
2018-05-24T10:34:01.654Z,21.8
2018-05-24T10:38:58.698Z,21.9
2018-05-24T10:43:56.021Z,21.9
2018-05-24T10:48:53.090Z,21.8
2018-05-24T10:53:50.304Z,21.8
2018-05-24T10:58:47.610Z,21.8
2018-05-24T11:03:44.837Z,22
2018-05-24T11:08:42.094Z,22
2018-05-24T11:13:39.425Z,22
2018-05-24T11:18:36.651Z,22
2018-05-24T11:23:33.929Z,21.9
2018-05-24T11:28:31.080Z,22.1
2018-05-24T11:33:28.246Z,22
2018-05-24T11:38:25.413Z,22.1
2018-05-24T11:43:22.400Z,22
2018-05-24T11:48:19.871Z,22.1
2018-05-24T11:53:16.841Z,22.2
2018-05-24T11:58:14.034Z,22.1
2018-05-24T12:03:11.185Z,22.2
2018-05-24T12:08:08.318Z,22.2
2018-05-24T12:13:05.524Z,22.2
2018-05-24T12:18:02.644Z,22.1
2018-05-24T12:23:00.062Z,22.3
2018-05-24T12:27:57.305Z,22.3
2018-05-24T12:32:54.478Z,22.3
2018-05-24T12:37:51.878Z,22.4
2018-05-24T12:42:49.070Z,22.4
2018-05-24T12:47:46.431Z,22.4
2018-05-24T12:52:43.382Z,22.4
2018-05-24T12:57:40.592Z,22.3
2018-05-24T13:02:37.541Z,22.3
2018-05-24T13:07:34.647Z,22.3
2018-05-24T13:12:31.658Z,22.5
2018-05-24T13:17:28.579Z,22.5
2018-05-24T13:22:25.783Z,22.4
2018-05-24T13:27:23.312Z,22.5
2018-05-24T13:32:20.231Z,22.4
2018-05-24T13:37:17.475Z,22.6
2018-05-24T13:42:14.751Z,22.6
2018-05-24T13:47:11.478Z,22.6
2018-05-24T13:52:08.632Z,22.6
2018-05-24T13:57:05.300Z,22.6
2018-05-24T14:02:02.249Z,22.6
2018-05-24T14:06:58.921Z,22.6
2018-05-24T14:11:55.993Z,22.6
2018-05-24T14:16:53.329Z,22.5
2018-05-24T14:21:50.032Z,22.7
2018-05-24T14:26:47.085Z,22.7
2018-05-24T14:31:44.261Z,22.7
2018-05-24T14:36:41.480Z,22.7
2018-05-24T14:41:38.705Z,22.7
2018-05-24T14:46:35.999Z,22.7
2018-05-24T14:51:33.413Z,22.7
2018-05-24T14:56:30.659Z,22.8
2018-05-24T15:01:27.573Z,22.7
2018-05-24T15:06:24.110Z,22.7
2018-05-24T15:11:21.176Z,22.6
2018-05-24T15:16:18.464Z,22.8
2018-05-24T15:21:15.119Z,22.8
2018-05-24T15:26:12.176Z,22.8
2018-05-24T15:31:09.305Z,22.7
2018-05-24T15:36:06.517Z,22.9
2018-05-24T15:41:03.740Z,22.7
2018-05-24T15:46:00.915Z,22.8
2018-05-24T15:50:57.689Z,22.9
2018-05-24T15:55:54.435Z,22.9
2018-05-24T16:00:51.723Z,22.9
2018-05-24T16:05:48.939Z,22.8
2018-05-24T16:10:46.174Z,23
2018-05-24T16:15:43.478Z,22.9
2018-05-24T16:20:41.273Z,22.9
2018-05-24T16:25:38.158Z,22.9
2018-05-24T16:30:35.124Z,23
2018-05-24T16:35:32.218Z,23
2018-05-24T16:40:29.297Z,22.9
2018-05-24T16:45:26.661Z,22.9
2018-05-24T16:50:24.061Z,23
2018-05-24T16:55:21.390Z,23
2018-05-24T17:00:18.783Z,23
2018-05-24T17:05:16.363Z,22.9
2018-05-24T17:10:14.232Z,23
2018-05-24T17:15:12.395Z,22.9
2018-05-24T17:20:10.084Z,22.9
2018-05-24T17:25:07.242Z,23
2018-05-24T17:30:04.616Z,23
2018-05-24T17:35:02.242Z,22.9
2018-05-24T17:39:59.368Z,23
2018-05-24T17:44:56.510Z,23
2018-05-24T17:49:53.679Z,23
2018-05-24T17:54:50.714Z,22.9
2018-05-24T17:59:47.913Z,22.8
2018-05-24T18:04:45.254Z,22.9
2018-05-24T18:09:42.579Z,22.9
2018-05-24T18:14:39.858Z,22.9
2018-05-24T18:19:37.321Z,22.8
2018-05-24T18:24:34.400Z,22.9
2018-05-24T18:29:31.418Z,22.8
2018-05-24T18:34:28.527Z,22.8
2018-05-24T18:39:26.002Z,22.8
2018-05-24T18:44:22.984Z,22.7
2018-05-24T18:49:20.097Z,22.7
2018-05-24T18:54:17.437Z,22.7
2018-05-24T18:59:14.486Z,22.6
2018-05-24T19:04:11.602Z,22.7
2018-05-24T19:09:09.053Z,22.7
2018-05-24T19:14:06.103Z,22.7
2018-05-24T19:19:03.549Z,22.6
2018-05-24T19:24:00.723Z,22.6
2018-05-24T19:28:57.952Z,22.6
2018-05-24T19:33:55.063Z,22.6
2018-05-24T19:38:52.321Z,22.5
2018-05-24T19:43:49.447Z,22.5
2018-05-24T19:48:46.658Z,22.5
2018-05-24T19:53:43.808Z,22.5
2018-05-24T19:58:40.991Z,22.3
2018-05-24T20:03:38.054Z,22.4
2018-05-24T20:08:35.215Z,22.4
2018-05-24T20:13:32.135Z,22.2
2018-05-24T20:18:29.294Z,22.2
2018-05-24T20:23:26.418Z,22.1
2018-05-24T20:28:23.651Z,22.2
2018-05-24T20:33:20.623Z,22.2
2018-05-24T20:38:17.961Z,22.2
2018-05-24T20:43:15.220Z,22.1
2018-05-24T20:48:12.526Z,22
2018-05-24T20:53:09.622Z,22.1
2018-05-24T20:58:06.840Z,22
2018-05-24T21:03:04.326Z,22
2018-05-24T21:08:01.485Z,21.8
2018-05-24T21:12:58.390Z,21.8
2018-05-24T21:17:55.695Z,21.8
2018-05-24T21:22:53.201Z,21.9
2018-05-24T21:27:50.152Z,21.7
2018-05-24T21:32:47.430Z,21.6
2018-05-24T21:37:44.488Z,21.7
2018-05-24T21:42:41.866Z,21.7
2018-05-24T21:47:39.262Z,21.6
2018-05-24T21:52:36.457Z,21.5
2018-05-24T21:57:33.776Z,21.6
2018-05-24T22:02:30.795Z,21.4
2018-05-24T22:07:27.922Z,21.4
2018-05-24T22:12:24.838Z,21.3
2018-05-24T22:17:21.944Z,21.3
2018-05-24T22:22:18.460Z,21.3
2018-05-24T22:27:15.781Z,21.3
2018-05-24T22:32:12.740Z,21.3
2018-05-24T22:37:09.640Z,21.3
2018-05-24T22:42:06.486Z,21.1
2018-05-24T22:47:03.543Z,21.2
2018-05-24T22:52:00.718Z,21.2
2018-05-24T22:56:57.821Z,21.1
2018-05-24T23:01:54.875Z,21.1
2018-05-24T23:06:52.016Z,20.9
2018-05-24T23:11:48.728Z,21
2018-05-24T23:16:45.836Z,20.8
2018-05-24T23:21:42.916Z,20.8
2018-05-24T23:26:40.181Z,20.9
2018-05-24T23:31:37.250Z,20.8
2018-05-24T23:36:34.581Z,20.8
2018-05-24T23:41:31.740Z,20.6
2018-05-24T23:46:28.707Z,20.6
2018-05-24T23:51:25.669Z,20.5
2018-05-24T23:56:22.915Z,20.5
